Pagrindinis puslapis
METAR-TAF:

METAR-TAF

Oro uostai :

Igvasu, Argentina

platuma: 25-44S, ilguma: 054-28W, Aukštis: 270 m

Dabartinis oras

Ataskaita buvo paskelbta 1 valandą ir 6 minutes, ne 21:00 UTC
Vėjas 8 kt iš Pietų
Temperatūra 21°C
Drėgmė 69%
Slėgis 1018 hPa
Matomumas 10 km arba daugiau
nėra debesų žemiau 1500 m ir nėra kamuolinių lietaus debesų

METAR: SARI 072100Z 18008KT CAVOK 21/15 Q1018

Laikas: 19:06 (22:06 UTC)

Prognozė

Ataskaita buvo paskelbta 5 valandos ir 6 minutes, ne 17:00 UTC
Prognozė galioja nuo 07 metu 18 UTC su 08 metu 18 UTC
Vėjas 5 kt iš Pietų
Matomumas 10 km arba daugiau
nėra debesų žemiau 1500 m ir nėra kamuolinių lietaus debesų

TAF: SARI 071700Z 0718/0818 18005KT CAVOK TX26/0719Z TN11/0810Z

Orai ataskaitas ir orų prognozės (METAR, TAF).

turimą stotys yra geltonos ir raudonos taškus žemėlapyje.

Perkelti pele per norėdami pamatyti stoties vardą.

Tada spustelėkite, norėdami matyti oro stebėjimo ir prognozės.

Norėdami pakeisti žemėlapį: spustelėkite ant žalios mygtukų su juodo kryžiaus žemyn,; žalią mygtuką su brūkšneliu, jei norite nutolinti; arba žalių rodyklių gretimoms žemėlapius.


METAR-TAF: